Time;durP1;ratioP1;P1;durP2;ratioP2;P2;SDS_P1;SDS_P2;PMS_P1;PMS_P2;Temp;Humidity;BMP_temperature;BMP_pressure;BME280_temperature;BME280_humidity;BME280_pressure;Samples;Min_cycle;Max_cycle;Signal;HPM_P1;HPM_P2
2021/12/15 00:01:13;;;;;;;;;;;;;;;;;;4151427;28;6990;-50
2021/12/15 00:03:36;;;;;;;;;;;;;;;;;;4151168;28;7196;-50
2021/12/15 00:05:57;;;;;;;;;;;;;;;;;;4151126;28;7190;-50
2021/12/15 00:08:18;;;;;;;;;;;;;;;;;;4150906;28;7046;-51
2021/12/15 00:10:40;;;;;;;;;;;;;;;;;;4149704;28;7211;-50
2021/12/15 00:13:01;;;;;;;;;;;;;;;;;;4151156;28;7990;-51
2021/12/15 00:15:22;;;;;;;;;;;;;;;;;;4150807;28;6995;-51
2021/12/15 00:17:44;;;;;;;;;;;;;;;;;;4150914;28;7010;-50
2021/12/15 00:20:08;;;;;;;;;;;;;;;;;;4150888;28;7029;-51
2021/12/15 00:22:30;;;;;;;;;;;;;;;;;;4150705;28;7011;-50
2021/12/15 00:24:51;;;;;;;;;;;;;;;;;;4150870;28;7127;-50
2021/12/15 00:27:13;;;;;;;;;;;;;;;;;;4150933;28;7010;-51
2021/12/15 00:29:34;;;;;;;;;;;;;;;;;;4151058;28;7053;-50
2021/12/15 00:31:57;;;;;;;;;;;;;;;;;;4150732;28;6990;-50
2021/12/15 00:34:18;;;;;;;;;;;;;;;;;;4150777;28;7045;-51
2021/12/15 00:36:43;;;;;;;;;;;;;;;;;;4150597;28;7002;-51
2021/12/15 00:39:05;;;;;;;;;;;;;;;;;;4150661;28;7022;-50
2021/12/15 00:41:26;;;;;;;;;;;;;;;;;;4150731;28;6990;-50
2021/12/15 00:43:47;;;;;;;;;;;;;;;;;;4150474;28;7203;-50
2021/12/15 00:46:09;;;;;;;;;;;;;;;;;;4150582;28;7450;-50
2021/12/15 00:48:30;;;;;;;;;;;;;;;;;;4150334;28;7026;-51
2021/12/15 00:50:51;;;;;;;;;;;;;;;;;;4161844;28;7076;-51
2021/12/15 00:53:15;;;;;;;;;;;;;;;;;;4150571;28;7049;-51
2021/12/15 00:55:38;;;;;;;;;;;;;;;;;;4163177;28;7002;-51
2021/12/15 00:57:59;;;;;;;;;;;;;;;;;;4150340;28;7042;-50
2021/12/15 01:00:21;;;;;;;;;;;;;;;;;;4162922;28;7052;-50
2021/12/15 01:02:43;;;;;;;;;;;;;;;;;;4150234;28;7153;-50
2021/12/15 01:05:04;;;;;;;;;;;;;;;;;;4150018;28;7018;-51
2021/12/15 01:07:26;;;;;;;;;;;;;;;;;;4162988;28;7198;-51
2021/12/15 01:09:53;;;;;;;;;;;;;;;;;;4149752;28;7467;-51
2021/12/15 01:12:24;;;;;;;;;;;;;;;;;;4149944;28;7103;-51
2021/12/15 01:20:05;;;;;;;;;;;;;;;;;;4148617;28;7034;-51
2021/12/15 01:22:27;;;;;;;;;;;;;;;;;;4149879;28;7257;-51
2021/12/15 01:24:49;;;;;;;;;;;;;;;;;;4150006;28;6991;-50
2021/12/15 01:27:11;;;;;;;;;;;;;;;;;;4149864;28;7006;-50
2021/12/15 01:29:33;;;;;;;;;;;;;;;;;;4149650;28;7164;-51
2021/12/15 01:31:54;;;;;;;;;;;;;;;;;;4162317;28;7006;-50
2021/12/15 01:34:15;;;;;;;;;;;;;;;;;;4149705;28;7007;-50
2021/12/15 01:36:36;;;;;;;;;;;;;;;;;;4162600;28;7176;-50
2021/12/15 01:38:58;;;;;;;;;;;;;;;;;;4149588;28;7015;-51
2021/12/15 01:41:22;;;;;;;;;;;;;;;;;;4162210;28;7006;-50
2021/12/15 01:46:51;;;;;;;;;;;;;;;;;;4162226;28;7001;-51
2021/12/15 01:49:10;;;;;;;;;;;;;;;;;;4149581;28;7142;-50
2021/12/15 01:51:31;;;;;;;;;;;;;;;;;;4149219;28;7006;-50
2021/12/15 01:53:52;;;;;;;;;;;;;;;;;;4149314;28;7140;-50
2021/12/15 01:56:13;;;;;;;;;;;;;;;;;;4162052;28;6982;-50
2021/12/15 01:58:35;;;;;;;;;;;;;;;;;;4161447;28;7022;-51
2021/12/15 02:04:07;;;;;;;;;;;;;;;;;;4148207;28;7002;-50
2021/12/15 02:06:28;;;;;;;;;;;;;;;;;;4148636;28;7154;-50
2021/12/15 02:08:50;;;;;;;;;;;;;;;;;;4161669;28;7006;-50
2021/12/15 02:11:11;;;;;;;;;;;;;;;;;;4148646;28;7010;-51
2021/12/15 02:13:33;;;;;;;;;;;;;;;;;;4161336;28;6994;-50
2021/12/15 02:15:55;;;;;;;;;;;;;;;;;;4161267;28;7124;-52
2021/12/15 02:18:17;;;;;;;;;;;;;;;;;;4161724;28;7418;-51
2021/12/15 02:20:40;;;;;;;;;;;;;;;;;;4161493;28;7219;-50
2021/12/15 02:23:02;;;;;;;;;;;;;;;;;;4161887;28;6997;-50
2021/12/15 02:25:25;;;;;;;;;;;;;;;;;;4161525;28;7142;-50
2021/12/15 02:27:46;;;;;;;;;;;;;;;;;;4161347;28;7006;-50
2021/12/15 02:30:20;;;;;;;;;;;;;;;;;;4148868;28;7143;-50
2021/12/15 02:32:53;;;;;;;;;;;;;;;;;;4148805;28;7010;-51
2021/12/15 02:37:54;;;;;;;;;;;;;;;;;;4148729;28;7064;-50
2021/12/15 02:40:18;;;;;;;;;;;;;;;;;;4148750;28;7446;-51
2021/12/15 02:42:40;;;;;;;;;;;;;;;;;;4161146;28;7399;-51
2021/12/15 02:45:01;;;;;;;;;;;;;;;;;;4148703;28;7014;-50
2021/12/15 02:47:24;;;;;;;;;;;;;;;;;;4148606;28;7006;-50
2021/12/15 02:49:46;;;;;;;;;;;;;;;;;;4148509;28;7002;-50
2021/12/15 02:52:07;;;;;;;;;;;;;;;;;;4148463;28;7136;-50
2021/12/15 02:54:30;;;;;;;;;;;;;;;;;;4148439;28;7108;-50
2021/12/15 02:56:53;;;;;;;;;;;;;;;;;;4147154;28;7141;-50
2021/12/15 02:59:16;;;;;;;;;;;;;;;;;;4148352;28;7019;-50
2021/12/15 03:01:42;;;;;;;;;;;;;;;;;;4148214;28;7019;-50
2021/12/15 03:04:26;;;;;;;;;;;;;;;;;;4148600;28;7077;-51
2021/12/15 03:06:54;;;;;;;;;;;;;;;;;;4148279;28;7188;-50
2021/12/15 03:15:17;;;;;;;;;;;;;;;;;;4148582;28;7014;-50
2021/12/15 03:17:25;;;;;;;;;;;;;;;;;;4148277;28;6990;-50
2021/12/15 03:19:46;;;;;;;;;;;;;;;;;;4147983;28;7057;-50
2021/12/15 03:22:08;;;;;;;;;;;;;;;;;;4147943;28;7144;-50
2021/12/15 03:24:29;;;;;;;;;;;;;;;;;;4148260;28;7006;-50
2021/12/15 03:26:56;;;;;;;;;;;;;;;;;;4148151;28;7019;-50
2021/12/15 03:34:48;;;;;;;;;;;;;;;;;;4146725;28;7368;-50
2021/12/15 03:37:22;;;;;;;;;;;;;;;;;;4148234;28;7041;-50
2021/12/15 03:39:45;;;;;;;;;;;;;;;;;;4148296;28;7411;-50
2021/12/15 03:42:08;;;;;;;;;;;;;;;;;;4148085;28;7010;-50
2021/12/15 03:44:32;;;;;;;;;;;;;;;;;;4148023;28;7003;-50
2021/12/15 03:46:53;;;;;;;;;;;;;;;;;;4148068;28;7023;-50
2021/12/15 03:49:14;;;;;;;;;;;;;;;;;;4146532;28;7777;-50
2021/12/15 03:51:36;;;;;;;;;;;;;;;;;;4147644;28;7010;-51
2021/12/15 03:53:57;;;;;;;;;;;;;;;;;;4147917;28;7082;-50
2021/12/15 03:56:18;;;;;;;;;;;;;;;;;;4147676;28;7442;-50
2021/12/15 03:58:40;;;;;;;;;;;;;;;;;;4147745;28;7158;-50
2021/12/15 04:01:04;;;;;;;;;;;;;;;;;;4148258;28;7006;-50
2021/12/15 04:03:26;;;;;;;;;;;;;;;;;;4148261;28;6999;-50
2021/12/15 04:05:48;;;;;;;;;;;;;;;;;;4147802;28;7002;-50
2021/12/15 04:08:09;;;;;;;;;;;;;;;;;;4148069;28;7163;-51
2021/12/15 04:10:30;;;;;;;;;;;;;;;;;;4147881;28;7041;-50
2021/12/15 04:12:52;;;;;;;;;;;;;;;;;;4147579;28;7054;-51
2021/12/15 04:15:25;;;;;;;;;;;;;;;;;;4147742;28;7018;-52
2021/12/15 04:17:48;;;;;;;;;;;;;;;;;;4147974;28;7045;-50
2021/12/15 04:20:11;;;;;;;;;;;;;;;;;;4147954;28;6994;-50
2021/12/15 04:22:32;;;;;;;;;;;;;;;;;;4147688;28;7026;-50
2021/12/15 04:24:53;;;;;;;;;;;;;;;;;;4149558;28;7007;-50
2021/12/15 04:27:14;;;;;;;;;;;;;;;;;;4150678;28;7024;-51
2021/12/15 04:29:35;;;;;;;;;;;;;;;;;;4150798;28;7007;-50
2021/12/15 04:32:04;;;;;;;;;;;;;;;;;;4150861;28;7006;-50
2021/12/15 04:34:26;;;;;;;;;;;;;;;;;;4150684;28;7135;-50
2021/12/15 04:36:48;;;;;;;;;;;;;;;;;;4150625;28;7006;-50
2021/12/15 04:39:10;;;;;;;;;;;;;;;;;;4150446;28;7132;-50
2021/12/15 04:41:31;;;;;;;;;;;;;;;;;;4150410;28;7019;-50
2021/12/15 04:43:57;;;;;;;;;;;;;;;;;;4150432;28;7097;-50
2021/12/15 04:46:18;;;;;;;;;;;;;;;;;;4150602;28;7004;-50
2021/12/15 04:48:40;;;;;;;;;;;;;;;;;;4150577;28;6994;-50
2021/12/15 04:51:03;;;;;;;;;;;;;;;;;;4150303;28;7010;-51
2021/12/15 04:53:24;;;;;;;;;;;;;;;;;;4150313;28;7002;-50
2021/12/15 04:55:46;;;;;;;;;;;;;;;;;;4150312;28;7018;-51
2021/12/15 04:58:09;;;;;;;;;;;;;;;;;;4150399;28;7011;-51
2021/12/15 05:00:30;;;;;;;;;;;;;;;;;;4150333;28;7295;-51
2021/12/15 05:02:52;;;;;;;;;;;;;;;;;;4150223;28;7002;-51
2021/12/15 05:05:13;;;;;;;;;;;;;;;;;;4150359;28;7026;-51
2021/12/15 05:07:36;;;;;;;;;;;;;;;;;;4149995;28;7027;-50
2021/12/15 05:09:59;;;;;;;;;;;;;;;;;;4162897;28;7010;-50
2021/12/15 05:12:20;;;;;;;;;;;;;;;;;;4150043;28;7188;-50
2021/12/15 05:14:41;;;;;;;;;;;;;;;;;;4150316;28;6999;-50
2021/12/15 05:17:03;;;;;;;;;;;;;;;;;;4162917;28;7629;-51
2021/12/15 05:19:25;;;;;;;;;;;;;;;;;;4149902;28;6991;-50
2021/12/15 05:21:48;;;;;;;;;;;;;;;;;;4149859;28;7003;-50
2021/12/15 05:24:22;;;;;;;;;;;;;;;;;;4149808;28;7011;-50
2021/12/15 05:26:43;;;;;;;;;;;;;;;;;;4150002;28;7053;-50
2021/12/15 05:29:05;;;;;;;;;;;;;;;;;;4150018;28;7023;-51
2021/12/15 05:31:26;;;;;;;;;;;;;;;;;;4149864;28;7002;-51
2021/12/15 05:33:48;;;;;;;;;;;;;;;;;;4150033;28;7007;-50
2021/12/15 05:36:09;;;;;;;;;;;;;;;;;;4149032;28;7006;-50
2021/12/15 05:38:31;;;;;;;;;;;;;;;;;;4149749;28;7006;-51
2021/12/15 05:40:54;;;;;;;;;;;;;;;;;;4149684;28;7158;-50
2021/12/15 05:43:16;;;;;;;;;;;;;;;;;;4149746;28;7019;-50
2021/12/15 05:45:38;;;;;;;;;;;;;;;;;;4149792;28;7493;-50
2021/12/15 05:47:59;;;;;;;;;;;;;;;;;;4149495;28;7002;-50
2021/12/15 05:50:21;;;;;;;;;;;;;;;;;;4149727;28;7144;-53
2021/12/15 05:52:42;;;;;;;;;;;;;;;;;;4148651;28;7006;-50
2021/12/15 05:55:04;;;;;;;;;;;;;;;;;;4148963;28;7046;-50
2021/12/15 05:57:27;;;;;;;;;;;;;;;;;;4149203;28;7207;-50
2021/12/15 05:59:48;;;;;;;;;;;;;;;;;;4149376;28;6982;-50
2021/12/15 06:02:09;;;;;;;;;;;;;;;;;;4149670;28;7007;-51
2021/12/15 06:04:31;;;;;;;;;;;;;;;;;;4149548;28;7427;-51
2021/12/15 06:06:52;;;;;;;;;;;;;;;;;;4149413;28;7019;-50
2021/12/15 06:09:14;;;;;;;;;;;;;;;;;;4149329;28;7049;-50
2021/12/15 06:11:35;;;;;;;;;;;;;;;;;;4149177;28;7002;-51
2021/12/15 06:13:58;;;;;;;;;;;;;;;;;;4149418;28;7019;-50
2021/12/15 06:16:19;;;;;;;;;;;;;;;;;;4147868;28;7189;-50
2021/12/15 06:18:40;;;;;;;;;;;;;;;;;;4149171;28;7061;-50
2021/12/15 06:21:01;;;;;;;;;;;;;;;;;;4148976;28;7224;-51
2021/12/15 06:23:23;;;;;;;;;;;;;;;;;;4148955;28;7231;-50
2021/12/15 06:25:44;;;;;;;;;;;;;;;;;;4149180;28;7002;-51
2021/12/15 06:28:05;;;;;;;;;;;;;;;;;;4149180;28;7002;-51
2021/12/15 06:30:28;;;;;;;;;;;;;;;;;;4148953;28;7010;-50
2021/12/15 06:32:49;;;;;;;;;;;;;;;;;;4149065;28;7019;-50
2021/12/15 06:35:11;;;;;;;;;;;;;;;;;;4148849;28;7019;-50
2021/12/15 06:37:32;;;;;;;;;;;;;;;;;;4148746;28;6982;-50
2021/12/15 06:39:54;;;;;;;;;;;;;;;;;;4148915;28;7038;-50
2021/12/15 06:42:15;;;;;;;;;;;;;;;;;;4148841;28;7011;-50
2021/12/15 06:44:38;;;;;;;;;;;;;;;;;;4148792;28;7011;-50
2021/12/15 06:58:11;;;;;;;;;;;;;;;;;;4148577;28;7207;-50
2021/12/15 07:00:17;;;;;;;;;;;;;;;;;;4148764;28;7038;-51
2021/12/15 07:02:40;;;;;;;;;;;;;;;;;;4148348;28;7148;-50
2021/12/15 07:05:01;;;;;;;;;;;;;;;;;;4148398;28;7303;-51
2021/12/15 07:07:22;;;;;;;;;;;;;;;;;;4148505;28;7002;-51
2021/12/15 07:09:44;;;;;;;;;;;;;;;;;;4148381;28;7169;-50
2021/12/15 07:12:06;;;;;;;;;;;;;;;;;;4148644;28;7172;-51
2021/12/15 07:14:27;;;;;;;;;;;;;;;;;;4148442;28;7010;-51
2021/12/15 07:16:50;;;;;;;;;;;;;;;;;;4148498;28;7434;-50
2021/12/15 07:19:19;;;;;;;;;;;;;;;;;;4148344;28;7015;-52
2021/12/15 07:21:51;;;;;;;;;;;;;;;;;;4148251;28;7007;-51
2021/12/15 07:24:12;;;;;;;;;;;;;;;;;;4148125;28;7268;-51
2021/12/15 07:26:33;;;;;;;;;;;;;;;;;;4148333;28;6995;-51
2021/12/15 07:28:54;;;;;;;;;;;;;;;;;;4148244;28;7172;-51
2021/12/15 07:31:16;;;;;;;;;;;;;;;;;;4148232;28;7051;-51
2021/12/15 07:33:38;;;;;;;;;;;;;;;;;;4148272;28;7030;-51
2021/12/15 07:36:01;;;;;;;;;;;;;;;;;;4148140;28;7003;-51
2021/12/15 07:38:22;;;;;;;;;;;;;;;;;;4148153;28;6999;-52
2021/12/15 07:40:43;;;;;;;;;;;;;;;;;;4148413;28;6983;-50
2021/12/15 07:43:07;;;;;;;;;;;;;;;;;;4148159;28;7042;-50
2021/12/15 07:45:29;;;;;;;;;;;;;;;;;;4147895;28;7140;-51
2021/12/15 07:47:50;;;;;;;;;;;;;;;;;;4148011;28;7002;-53
2021/12/15 07:50:12;;;;;;;;;;;;;;;;;;4148235;28;7187;-50
2021/12/15 07:52:34;;;;;;;;;;;;;;;;;;4147952;28;7026;-50
2021/12/15 07:54:56;;;;;;;;;;;;;;;;;;4148036;28;7131;-51
2021/12/15 07:57:19;;;;;;;;;;;;;;;;;;4148067;28;7010;-50
2021/12/15 07:59:40;;;;;;;;;;;;;;;;;;4149715;28;7007;-50
2021/12/15 08:02:01;;;;;;;;;;;;;;;;;;4151224;28;7014;-50
2021/12/15 08:04:22;;;;;;;;;;;;;;;;;;4151156;28;7008;-51
2021/12/15 08:06:45;;;;;;;;;;;;;;;;;;4151134;28;6986;-50
2021/12/15 08:09:08;;;;;;;;;;;;;;;;;;4151054;28;7443;-50
2021/12/15 08:11:30;;;;;;;;;;;;;;;;;;4151282;28;7023;-51
2021/12/15 08:13:51;;;;;;;;;;;;;;;;;;4151011;28;7531;-51
2021/12/15 08:16:14;;;;;;;;;;;;;;;;;;4150883;28;7006;-50
2021/12/15 08:18:35;;;;;;;;;;;;;;;;;;4151041;28;7010;-50
2021/12/15 08:20:57;;;;;;;;;;;;;;;;;;4151040;28;7006;-52
2021/12/15 08:23:18;;;;;;;;;;;;;;;;;;4151011;28;7015;-50
2021/12/15 08:25:41;;;;;;;;;;;;;;;;;;4150927;28;7003;-50
2021/12/15 08:28:02;;;;;;;;;;;;;;;;;;4151050;28;7167;-51
2021/12/15 08:30:24;;;;;;;;;;;;;;;;;;4151017;28;7016;-50
2021/12/15 08:32:45;;;;;;;;;;;;;;;;;;4150998;28;7109;-50
2021/12/15 08:35:07;;;;;;;;;;;;;;;;;;4150853;28;7243;-50
2021/12/15 08:37:28;;;;;;;;;;;;;;;;;;4163435;28;7031;-51
2021/12/15 08:39:49;;;;;;;;;;;;;;;;;;4150718;28;7027;-52
2021/12/15 08:42:12;;;;;;;;;;;;;;;;;;4150475;28;7006;-50
2021/12/15 08:44:33;;;;;;;;;;;;;;;;;;4163151;28;7019;-51
2021/12/15 08:46:54;;;;;;;;;;;;;;;;;;4150426;28;7232;-51
2021/12/15 08:49:17;;;;;;;;;;;;;;;;;;4150392;28;7150;-54
2021/12/15 08:51:38;;;;;;;;;;;;;;;;;;4150496;28;7006;-50
2021/12/15 08:54:00;;;;;;;;;;;;;;;;;;4150446;28;7466;-50
2021/12/15 08:56:21;;;;;;;;;;;;;;;;;;4150505;28;7014;-50
2021/12/15 08:58:44;;;;;;;;;;;;;;;;;;4150600;28;7006;-50
2021/12/15 09:01:06;;;;;;;;;;;;;;;;;;4150587;28;7152;-50
2021/12/15 09:03:27;;;;;;;;;;;;;;;;;;4150419;28;7002;-50
2021/12/15 09:05:49;;;;;;;;;;;;;;;;;;4150228;28;7003;-50
2021/12/15 09:08:10;;;;;;;;;;;;;;;;;;4150199;28;7142;-50
2021/12/15 09:10:32;;;;;;;;;;;;;;;;;;4149166;28;7030;-50
2021/12/15 09:12:54;;;;;;;;;;;;;;;;;;4150084;28;6995;-50
2021/12/15 09:15:16;;;;;;;;;;;;;;;;;;4150163;28;7002;-51
2021/12/15 09:17:38;;;;;;;;;;;;;;;;;;4150211;28;7392;-50
2021/12/15 09:19:59;;;;;;;;;;;;;;;;;;4149975;28;7012;-50
2021/12/15 09:22:20;;;;;;;;;;;;;;;;;;4150400;28;7022;-50
2021/12/15 09:24:42;;;;;;;;;;;;;;;;;;4150349;28;7232;-50
2021/12/15 09:27:03;;;;;;;;;;;;;;;;;;4141063;28;7006;-51
2021/12/15 09:29:24;;;;;;;;;;;;;;;;;;4133333;28;7142;-53
2021/12/15 09:31:47;;;;;;;;;;;;;;;;;;4147590;28;6988;-50
2021/12/15 09:34:10;;;;;;;;;;;;;;;;;;4150071;28;7015;-51
2021/12/15 09:36:31;;;;;;;;;;;;;;;;;;4144715;28;7022;-51
2021/12/15 09:38:53;;;;;;;;;;;;;;;;;;4145455;28;7034;-51
2021/12/15 09:41:15;;;;;;;;;;;;;;;;;;4149553;28;6999;-51
2021/12/15 09:43:37;;;;;;;;;;;;;;;;;;4149883;28;7036;-50
2021/12/15 09:46:05;;;;;;;;;;;;;;;;;;4141820;28;7060;-50
2021/12/15 10:04:24;;;;;;;;;;;;;;;;;;4179242;28;7002;-51
2021/12/15 10:07:02;;;;;;;;;;;;;;;;;;4179299;28;7283;-50
2021/12/15 10:12:27;;;;;;;;;;;;;;;;;;4176076;28;7160;-51
2021/12/15 10:17:44;;;;;;;;;;;;;;;;;;4175975;28;7161;-51
2021/12/15 10:20:05;;;;;;;;;;;;;;;;;;4175172;28;7010;-51
2021/12/15 10:22:33;;;;;;;;;;;;;;;;;;4178065;28;7086;-53
2021/12/15 10:24:55;;;;;;;;;;;;;;;;;;4176478;28;7144;-51
2021/12/15 10:27:18;;;;;;;;;;;;;;;;;;4187229;28;6998;-50
2021/12/15 10:29:54;;;;;;;;;;;;;;;;;;4185946;28;7471;-50
2021/12/15 10:32:16;;;;;;;;;;;;;;;;;;4183116;28;7084;-51
2021/12/15 10:34:40;;;;;;;;;;;;;;;;;;4177483;28;7463;-50
2021/12/15 10:37:01;;;;;;;;;;;;;;;;;;4175040;28;7486;-50
2021/12/15 10:39:23;;;;;;;;;;;;;;;;;;4179188;28;7002;-50
2021/12/15 10:41:45;;;;;;;;;;;;;;;;;;4175086;28;6990;-51
2021/12/15 10:44:07;;;;;;;;;;;;;;;;;;4178358;28;7581;-50
2021/12/15 10:46:28;;;;;;;;;;;;;;;;;;4179467;28;7018;-50
2021/12/15 10:48:52;;;;;;;;;;;;;;;;;;4179971;28;7042;-51
2021/12/15 10:51:34;;;;;;;;;;;;;;;;;;4172479;28;7049;-50
2021/12/15 10:53:56;;;;;;;;;;;;;;;;;;4178642;28;7336;-51
2021/12/15 10:56:19;;;;;;;;;;;;;;;;;;4175892;28;7076;-50
2021/12/15 10:58:41;;;;;;;;;;;;;;;;;;4160734;28;7014;-51
2021/12/15 11:01:23;;;;;;;;;;;;;;;;;;4161802;28;7010;-51
2021/12/15 11:03:44;;;;;;;;;;;;;;;;;;4161205;28;7015;-52
2021/12/15 11:06:19;;;;;;;;;;;;;;;;;;4161813;28;7041;-57
2021/12/15 11:08:41;;;;;;;;;;;;;;;;;;4156971;28;7156;-52
2021/12/15 11:11:02;;;;;;;;;;;;;;;;;;4149837;28;6974;-56
2021/12/15 11:13:25;;;;;;;;;;;;;;;;;;4149833;28;7018;-52
2021/12/15 11:15:46;;;;;;;;;;;;;;;;;;4149848;28;7034;-51
2021/12/15 11:18:10;;;;;;;;;;;;;;;;;;4153916;28;7450;-52
2021/12/15 11:20:33;;;;;;;;;;;;;;;;;;4166428;28;7026;-52
2021/12/15 11:22:58;;;;;;;;;;;;;;;;;;4166311;28;7126;-52
2021/12/15 11:25:21;;;;;;;;;;;;;;;;;;4166225;28;7044;-52
2021/12/15 11:27:42;;;;;;;;;;;;;;;;;;4166368;28;7002;-52
2021/12/15 11:30:04;;;;;;;;;;;;;;;;;;4166460;28;7006;-52
2021/12/15 11:32:41;;;;;;;;;;;;;;;;;;4166121;28;6999;-52
2021/12/15 11:35:04;;;;;;;;;;;;;;;;;;4166217;28;7010;-51
2021/12/15 11:37:41;;;;;;;;;;;;;;;;;;4165941;28;7154;-52
2021/12/15 11:40:04;;;;;;;;;;;;;;;;;;4165190;28;7010;-51
2021/12/15 11:42:26;;;;;;;;;;;;;;;;;;4166030;28;7076;-51
2021/12/15 11:44:47;;;;;;;;;;;;;;;;;;4165874;28;7064;-51
2021/12/15 11:47:09;;;;;;;;;;;;;;;;;;4165787;28;7026;-52
2021/12/15 11:49:30;;;;;;;;;;;;;;;;;;4166064;28;7025;-51
2021/12/15 11:51:52;;;;;;;;;;;;;;;;;;4165885;28;7034;-51
2021/12/15 11:54:15;;;;;;;;;;;;;;;;;;4165782;28;7453;-52
2021/12/15 11:56:37;;;;;;;;;;;;;;;;;;4165886;28;7053;-51
2021/12/15 11:59:00;;;;;;;;;;;;;;;;;;4165635;28;7386;-52
2021/12/15 12:01:40;;;;;;;;;;;;;;;;;;4165879;28;7148;-51
2021/12/15 12:04:12;;;;;;;;;;;;;;;;;;4165613;28;7071;-51
2021/12/15 12:06:33;;;;;;;;;;;;;;;;;;4165509;28;7407;-52
2021/12/15 12:08:54;;;;;;;;;;;;;;;;;;4165633;28;7049;-56
2021/12/15 12:11:16;;;;;;;;;;;;;;;;;;4164643;28;7498;-51
2021/12/15 12:13:41;;;;;;;;;;;;;;;;;;4165570;28;7189;-51
2021/12/15 12:16:04;;;;;;;;;;;;;;;;;;4165488;28;7015;-51
2021/12/15 12:18:27;;;;;;;;;;;;;;;;;;4165368;28;7148;-52
2021/12/15 12:20:49;;;;;;;;;;;;;;;;;;4164365;28;7056;-52
2021/12/15 12:23:11;;;;;;;;;;;;;;;;;;4165188;28;7015;-52
2021/12/15 12:25:34;;;;;;;;;;;;;;;;;;4165391;28;7006;-51
2021/12/15 12:27:56;;;;;;;;;;;;;;;;;;4165176;28;7050;-51
2021/12/15 12:30:19;;;;;;;;;;;;;;;;;;4165223;28;7513;-51
2021/12/15 12:32:41;;;;;;;;;;;;;;;;;;4165405;28;7022;-52
2021/12/15 12:35:04;;;;;;;;;;;;;;;;;;4181364;28;7022;-51
2021/12/15 12:37:25;;;;;;;;;;;;;;;;;;4181578;28;7018;-51
2021/12/15 12:39:53;;;;;;;;;;;;;;;;;;4181755;28;6994;-51
2021/12/15 12:42:27;;;;;;;;;;;;;;;;;;4179948;28;7022;-51
2021/12/15 12:44:50;;;;;;;;;;;;;;;;;;4172449;28;7161;-51
2021/12/15 12:47:29;;;;;;;;;;;;;;;;;;4181404;28;7147;-51
2021/12/15 12:58:03;;;;;;;;;;;;;;;;;;4159189;28;7110;-52
2021/12/15 13:00:35;;;;;;;;;;;;;;;;;;4160398;28;7575;-51
2021/12/15 13:03:00;;;;;;;;;;;;;;;;;;4167052;28;7124;-51
2021/12/15 13:05:32;;;;;;;;;;;;;;;;;;4173686;28;7002;-51
2021/12/15 13:07:54;;;;;;;;;;;;;;;;;;4170918;28;7207;-52
2021/12/15 13:10:16;;;;;;;;;;;;;;;;;;4162435;28;7018;-51
2021/12/15 13:12:40;;;;;;;;;;;;;;;;;;4162470;28;7556;-52
2021/12/15 13:15:01;;;;;;;;;;;;;;;;;;4170122;28;7105;-52
2021/12/15 13:17:26;;;;;;;;;;;;;;;;;;4178815;28;7054;-52
2021/12/15 13:19:50;;;;;;;;;;;;;;;;;;4177504;28;7045;-52
2021/12/15 13:22:20;;;;;;;;;;;;;;;;;;4179133;28;7016;-52
2021/12/15 13:30:03;;;;;;;;;;;;;;;;;;4146113;28;7051;-51
2021/12/15 13:32:27;;;;;;;;;;;;;;;;;;4157541;28;6994;-52
2021/12/15 13:34:49;;;;;;;;;;;;;;;;;;4163402;28;7006;-53
2021/12/15 13:37:10;;;;;;;;;;;;;;;;;;4162634;28;7011;-52
2021/12/15 13:39:43;;;;;;;;;;;;;;;;;;4168400;28;7007;-52
2021/12/15 13:42:11;;;;;;;;;;;;;;;;;;4162172;28;7139;-51
2021/12/15 13:44:35;;;;;;;;;;;;;;;;;;4162454;28;7007;-52
2021/12/15 13:46:57;;;;;;;;;;;;;;;;;;4162559;28;7009;-51
2021/12/15 13:49:21;;;;;;;;;;;;;;;;;;4160724;28;7017;-51
2021/12/15 13:52:07;;;;;;;;;;;;;;;;;;4168882;28;7043;-51
2021/12/15 13:54:48;;;;;;;;;;;;;;;;;;4162430;28;7055;-51
2021/12/15 13:57:18;;;;;;;;;;;;;;;;;;4162260;28;7025;-52
2021/12/15 13:59:39;;;;;;;;;;;;;;;;;;4161947;28;6993;-52
2021/12/15 14:02:11;;;;;;;;;;;;;;;;;;4167474;28;7055;-51
2021/12/15 14:04:42;;;;;;;;;;;;;;;;;;4159524;28;7085;-52
2021/12/15 14:07:18;;;;;;;;;;;;;;;;;;4161654;28;7002;-52
2021/12/15 14:09:40;;;;;;;;;;;;;;;;;;4162430;28;7024;-53
2021/12/15 14:12:01;;;;;;;;;;;;;;;;;;4161534;28;7277;-52
2021/12/15 14:14:24;;;;;;;;;;;;;;;;;;4179070;28;7061;-52
2021/12/15 14:16:47;;;;;;;;;;;;;;;;;;4180086;28;6998;-51
2021/12/15 14:19:09;;;;;;;;;;;;;;;;;;4180289;28;7006;-52
2021/12/15 14:21:31;;;;;;;;;;;;;;;;;;4180310;28;7014;-52
2021/12/15 14:23:54;;;;;;;;;;;;;;;;;;4170764;28;7077;-51
2021/12/15 14:26:16;;;;;;;;;;;;;;;;;;4163590;28;7113;-52
2021/12/15 14:28:37;;;;;;;;;;;;;;;;;;4176716;28;7164;-52
2021/12/15 14:31:01;;;;;;;;;;;;;;;;;;4163648;28;7585;-52
2021/12/15 14:33:24;;;;;;;;;;;;;;;;;;4168839;28;7173;-53
2021/12/15 14:35:45;;;;;;;;;;;;;;;;;;4172287;28;7010;-51
2021/12/15 14:38:06;;;;;;;;;;;;;;;;;;4172863;28;7088;-51
2021/12/15 14:40:28;;;;;;;;;;;;;;;;;;4170101;28;7084;-52
2021/12/15 14:42:49;;;;;;;;;;;;;;;;;;4169440;28;7023;-52
2021/12/15 14:45:11;;;;;;;;;;;;;;;;;;4170923;28;7006;-51
2021/12/15 14:47:35;;;;;;;;;;;;;;;;;;4172117;28;7206;-51
2021/12/15 14:49:57;;;;;;;;;;;;;;;;;;4176159;28;7407;-52
2021/12/15 14:52:18;;;;;;;;;;;;;;;;;;4174639;28;7078;-52
2021/12/15 14:54:40;;;;;;;;;;;;;;;;;;4179713;28;7015;-51
2021/12/15 14:57:01;;;;;;;;;;;;;;;;;;4183313;28;7020;-52
2021/12/15 14:59:24;;;;;;;;;;;;;;;;;;4166097;28;7037;-52
2021/12/15 15:01:45;;;;;;;;;;;;;;;;;;4163270;28;6986;-52
2021/12/15 15:04:08;;;;;;;;;;;;;;;;;;4171787;28;7015;-52
2021/12/15 15:06:30;;;;;;;;;;;;;;;;;;4171563;28;7029;-52
2021/12/15 15:08:51;;;;;;;;;;;;;;;;;;4174217;28;7144;-51
2021/12/15 15:11:16;;;;;;;;;;;;;;;;;;4172859;28;7060;-52
2021/12/15 15:13:40;;;;;;;;;;;;;;;;;;4178276;28;7006;-52
2021/12/15 15:16:05;;;;;;;;;;;;;;;;;;4175320;28;7026;-52
2021/12/15 15:18:27;;;;;;;;;;;;;;;;;;4173494;28;7096;-52
2021/12/15 15:20:50;;;;;;;;;;;;;;;;;;4165843;28;7003;-52
2021/12/15 15:23:12;;;;;;;;;;;;;;;;;;4165822;28;7065;-53
2021/12/15 15:25:34;;;;;;;;;;;;;;;;;;4166166;28;6986;-51
2021/12/15 15:27:56;;;;;;;;;;;;;;;;;;4178983;28;7006;-52
2021/12/15 15:30:19;;;;;;;;;;;;;;;;;;4182545;28;7040;-52
2021/12/15 15:32:42;;;;;;;;;;;;;;;;;;4177464;28;7026;-52
2021/12/15 15:35:10;;;;;;;;;;;;;;;;;;4166272;28;7159;-52
2021/12/15 15:37:33;;;;;;;;;;;;;;;;;;4166091;28;7010;-52
2021/12/15 15:40:01;;;;;;;;;;;;;;;;;;4166008;28;7029;-52
2021/12/15 15:42:24;;;;;;;;;;;;;;;;;;4166116;28;7003;-53
2021/12/15 15:44:45;;;;;;;;;;;;;;;;;;4169247;28;7007;-52
2021/12/15 15:47:12;;;;;;;;;;;;;;;;;;4182452;28;6994;-52
2021/12/15 15:49:33;;;;;;;;;;;;;;;;;;4182343;28;7428;-53
2021/12/15 15:51:55;;;;;;;;;;;;;;;;;;4179506;28;7006;-52
2021/12/15 15:54:21;;;;;;;;;;;;;;;;;;4171291;28;7037;-52
2021/12/15 15:56:43;;;;;;;;;;;;;;;;;;4168411;28;7169;-52
2021/12/15 15:59:05;;;;;;;;;;;;;;;;;;4165930;28;7359;-52
2021/12/15 16:01:26;;;;;;;;;;;;;;;;;;4165026;28;7027;-53
2021/12/15 16:03:51;;;;;;;;;;;;;;;;;;4164130;28;7006;-52
2021/12/15 16:06:12;;;;;;;;;;;;;;;;;;4162398;28;7002;-52
2021/12/15 16:08:35;;;;;;;;;;;;;;;;;;4162422;28;7100;-52
2021/12/15 16:10:58;;;;;;;;;;;;;;;;;;4165425;28;7006;-52
2021/12/15 16:13:19;;;;;;;;;;;;;;;;;;4165589;28;7191;-52
2021/12/15 16:15:43;;;;;;;;;;;;;;;;;;4164378;28;7172;-53
2021/12/15 16:18:06;;;;;;;;;;;;;;;;;;4165417;28;6996;-52
2021/12/15 16:20:58;;;;;;;;;;;;;;;;;;4165466;28;7014;-51
2021/12/15 16:23:17;;;;;;;;;;;;;;;;;;4165079;28;7018;-51
2021/12/15 16:25:41;;;;;;;;;;;;;;;;;;4164138;28;7403;-52
2021/12/15 16:28:07;;;;;;;;;;;;;;;;;;4158762;28;7045;-51
2021/12/15 16:30:32;;;;;;;;;;;;;;;;;;4161909;28;7142;-51
2021/12/15 16:32:55;;;;;;;;;;;;;;;;;;4162062;28;7354;-51
2021/12/15 16:35:17;;;;;;;;;;;;;;;;;;4161663;28;7081;-51
2021/12/15 16:37:39;;;;;;;;;;;;;;;;;;4163097;28;7014;-51
2021/12/15 16:40:01;;;;;;;;;;;;;;;;;;4162583;28;7022;-51
2021/12/15 16:42:24;;;;;;;;;;;;;;;;;;4163487;28;7517;-52
2021/12/15 16:44:47;;;;;;;;;;;;;;;;;;4163043;28;7061;-52
2021/12/15 16:47:11;;;;;;;;;;;;;;;;;;4163056;28;7038;-51
2021/12/15 16:49:34;;;;;;;;;;;;;;;;;;4162863;28;7051;-51
2021/12/15 16:51:57;;;;;;;;;;;;;;;;;;4162537;28;7047;-52
2021/12/15 16:54:18;;;;;;;;;;;;;;;;;;4162776;28;7019;-51
2021/12/15 16:56:42;;;;;;;;;;;;;;;;;;4146766;28;7155;-52
2021/12/15 16:59:07;;;;;;;;;;;;;;;;;;4162663;28;7019;-52
2021/12/15 17:01:34;;;;;;;;;;;;;;;;;;4162614;28;7034;-52
2021/12/15 17:03:56;;;;;;;;;;;;;;;;;;4160194;28;7144;-52
2021/12/15 17:06:23;;;;;;;;;;;;;;;;;;4162378;28;7207;-52
2021/12/15 17:08:44;;;;;;;;;;;;;;;;;;4161730;28;7026;-52
2021/12/15 17:11:08;;;;;;;;;;;;;;;;;;4161781;28;7486;-52
2021/12/15 17:13:32;;;;;;;;;;;;;;;;;;4162251;28;7194;-52
2021/12/15 17:15:56;;;;;;;;;;;;;;;;;;4159421;28;7026;-52
2021/12/15 17:18:22;;;;;;;;;;;;;;;;;;4160827;28;7010;-52
2021/12/15 17:20:43;;;;;;;;;;;;;;;;;;4161223;28;7165;-52
2021/12/15 17:23:05;;;;;;;;;;;;;;;;;;4162460;28;7011;-52
2021/12/15 17:25:27;;;;;;;;;;;;;;;;;;4162057;28;7002;-52
2021/12/15 17:27:55;;;;;;;;;;;;;;;;;;4162545;28;7377;-52
2021/12/15 17:30:24;;;;;;;;;;;;;;;;;;4162086;28;7015;-52
2021/12/15 17:32:45;;;;;;;;;;;;;;;;;;4162294;28;7026;-52
2021/12/15 17:35:14;;;;;;;;;;;;;;;;;;4160954;28;7174;-52
2021/12/15 17:37:35;;;;;;;;;;;;;;;;;;4162752;28;7011;-52
2021/12/15 17:39:57;;;;;;;;;;;;;;;;;;4161696;28;6982;-52
2021/12/15 17:42:23;;;;;;;;;;;;;;;;;;4162355;28;7050;-52
2021/12/15 17:44:45;;;;;;;;;;;;;;;;;;4163592;28;7014;-53
2021/12/15 17:47:08;;;;;;;;;;;;;;;;;;4163546;28;7026;-52